sensor_id;sensor_type;location;lat;lon;timestamp;P1;durP1;ratioP1;P2;durP2;ratioP2
69083;SDS011;56185;48.526;9.044;2023-04-15T00:01:56;7.00;;;3.00;;
69083;SDS011;56185;48.526;9.044;2023-04-15T00:04:22;5.65;;;3.20;;
69083;SDS011;56185;48.526;9.044;2023-04-15T00:06:51;5.70;;;3.50;;
69083;SDS011;56185;48.526;9.044;2023-04-15T00:09:17;5.30;;;2.83;;
69083;SDS011;56185;48.526;9.044;2023-04-15T00:11:43;5.75;;;2.72;;
69083;SDS011;56185;48.526;9.044;2023-04-15T00:14:09;5.65;;;2.75;;
69083;SDS011;56185;48.526;9.044;2023-04-15T00:16:34;7.63;;;3.03;;
69083;SDS011;56185;48.526;9.044;2023-04-15T00:18:59;4.55;;;2.85;;
69083;SDS011;56185;48.526;9.044;2023-04-15T00:21:24;6.57;;;3.10;;
69083;SDS011;56185;48.526;9.044;2023-04-15T00:23:50;6.37;;;2.90;;
69083;SDS011;56185;48.526;9.044;2023-04-15T00:26:15;5.23;;;2.63;;
69083;SDS011;56185;48.526;9.044;2023-04-15T00:28:40;6.30;;;3.13;;
69083;SDS011;56185;48.526;9.044;2023-04-15T00:31:05;5.07;;;2.87;;
69083;SDS011;56185;48.526;9.044;2023-04-15T00:33:31;6.67;;;3.00;;
69083;SDS011;56185;48.526;9.044;2023-04-15T00:35:56;4.37;;;2.90;;
69083;SDS011;56185;48.526;9.044;2023-04-15T00:38:21;7.27;;;3.00;;
69083;SDS011;56185;48.526;9.044;2023-04-15T00:40:46;4.90;;;2.80;;
69083;SDS011;56185;48.526;9.044;2023-04-15T00:43:12;10.70;;;2.95;;
69083;SDS011;56185;48.526;9.044;2023-04-15T00:45:37;4.80;;;2.60;;
69083;SDS011;56185;48.526;9.044;2023-04-15T00:48:02;6.10;;;2.70;;
69083;SDS011;56185;48.526;9.044;2023-04-15T00:50:29;5.80;;;2.70;;
69083;SDS011;56185;48.526;9.044;2023-04-15T00:52:54;7.85;;;3.20;;
69083;SDS011;56185;48.526;9.044;2023-04-15T00:55:19;4.50;;;2.80;;
69083;SDS011;56185;48.526;9.044;2023-04-15T00:57:45;6.30;;;2.55;;
69083;SDS011;56185;48.526;9.044;2023-04-15T01:00:10;4.15;;;2.40;;
69083;SDS011;56185;48.526;9.044;2023-04-15T01:02:36;5.32;;;2.65;;
69083;SDS011;56185;48.526;9.044;2023-04-15T01:05:02;5.63;;;2.47;;
69083;SDS011;56185;48.526;9.044;2023-04-15T01:07:27;4.68;;;2.80;;
69083;SDS011;56185;48.526;9.044;2023-04-15T01:09:53;4.15;;;2.90;;
69083;SDS011;56185;48.526;9.044;2023-04-15T01:12:18;6.03;;;3.03;;
69083;SDS011;56185;48.526;9.044;2023-04-15T01:14:44;6.75;;;3.08;;
69083;SDS011;56185;48.526;9.044;2023-04-15T01:17:09;6.35;;;3.00;;
69083;SDS011;56185;48.526;9.044;2023-04-15T01:19:35;4.70;;;2.80;;
69083;SDS011;56185;48.526;9.044;2023-04-15T01:22:01;5.80;;;3.22;;
69083;SDS011;56185;48.526;9.044;2023-04-15T01:24:27;7.05;;;3.60;;
69083;SDS011;56185;48.526;9.044;2023-04-15T01:26:55;5.57;;;3.47;;
69083;SDS011;56185;48.526;9.044;2023-04-15T01:29:20;6.68;;;3.08;;
69083;SDS011;56185;48.526;9.044;2023-04-15T01:31:52;10.10;;;3.53;;
69083;SDS011;56185;48.526;9.044;2023-04-15T01:34:19;7.63;;;3.55;;
69083;SDS011;56185;48.526;9.044;2023-04-15T01:36:44;6.03;;;3.15;;
69083;SDS011;56185;48.526;9.044;2023-04-15T01:39:10;5.68;;;3.28;;
69083;SDS011;56185;48.526;9.044;2023-04-15T01:41:35;4.47;;;3.03;;
69083;SDS011;56185;48.526;9.044;2023-04-15T01:44:01;7.65;;;3.63;;
69083;SDS011;56185;48.526;9.044;2023-04-15T01:46:26;5.10;;;3.20;;
69083;SDS011;56185;48.526;9.044;2023-04-15T01:48:51;7.55;;;3.30;;
69083;SDS011;56185;48.526;9.044;2023-04-15T01:51:17;6.40;;;3.20;;
69083;SDS011;56185;48.526;9.044;2023-04-15T01:53:42;5.00;;;3.05;;
69083;SDS011;56185;48.526;9.044;2023-04-15T01:56:07;7.00;;;3.30;;
69083;SDS011;56185;48.526;9.044;2023-04-15T01:58:32;7.00;;;3.42;;
69083;SDS011;56185;48.526;9.044;2023-04-15T02:00:57;5.65;;;2.97;;
69083;SDS011;56185;48.526;9.044;2023-04-15T02:03:23;4.88;;;3.60;;
69083;SDS011;56185;48.526;9.044;2023-04-15T02:05:49;6.85;;;3.83;;
69083;SDS011;56185;48.526;9.044;2023-04-15T02:08:14;7.72;;;3.67;;
69083;SDS011;56185;48.526;9.044;2023-04-15T02:10:40;6.15;;;3.60;;
69083;SDS011;56185;48.526;9.044;2023-04-15T02:13:05;6.22;;;3.50;;
69083;SDS011;56185;48.526;9.044;2023-04-15T02:15:31;8.30;;;3.70;;
69083;SDS011;56185;48.526;9.044;2023-04-15T02:17:56;8.88;;;4.28;;
69083;SDS011;56185;48.526;9.044;2023-04-15T02:20:21;7.03;;;3.63;;
69083;SDS011;56185;48.526;9.044;2023-04-15T02:22:46;8.23;;;4.18;;
69083;SDS011;56185;48.526;9.044;2023-04-15T02:25:12;8.35;;;3.97;;
69083;SDS011;56185;48.526;9.044;2023-04-15T02:27:37;7.78;;;3.55;;
69083;SDS011;56185;48.526;9.044;2023-04-15T02:30:02;5.72;;;3.30;;
69083;SDS011;56185;48.526;9.044;2023-04-15T02:32:28;7.70;;;3.63;;
69083;SDS011;56185;48.526;9.044;2023-04-15T02:34:53;6.63;;;3.40;;
69083;SDS011;56185;48.526;9.044;2023-04-15T02:37:19;11.95;;;3.50;;
69083;SDS011;56185;48.526;9.044;2023-04-15T02:39:44;6.63;;;3.55;;
69083;SDS011;56185;48.526;9.044;2023-04-15T02:42:10;5.45;;;3.25;;
69083;SDS011;56185;48.526;9.044;2023-04-15T02:44:35;6.80;;;3.43;;
69083;SDS011;56185;48.526;9.044;2023-04-15T02:47:00;6.15;;;3.55;;
69083;SDS011;56185;48.526;9.044;2023-04-15T02:49:25;5.30;;;3.27;;
69083;SDS011;56185;48.526;9.044;2023-04-15T02:51:51;4.95;;;3.28;;
69083;SDS011;56185;48.526;9.044;2023-04-15T02:54:17;5.30;;;3.30;;
69083;SDS011;56185;48.526;9.044;2023-04-15T02:56:43;6.53;;;3.40;;
69083;SDS011;56185;48.526;9.044;2023-04-15T02:59:08;6.55;;;3.42;;
69083;SDS011;56185;48.526;9.044;2023-04-15T03:01:33;7.57;;;3.40;;
69083;SDS011;56185;48.526;9.044;2023-04-15T03:03:59;5.28;;;3.10;;
69083;SDS011;56185;48.526;9.044;2023-04-15T03:06:24;7.73;;;3.60;;
69083;SDS011;56185;48.526;9.044;2023-04-15T03:08:49;5.93;;;3.30;;
69083;SDS011;56185;48.526;9.044;2023-04-15T03:11:15;6.15;;;2.88;;
69083;SDS011;56185;48.526;9.044;2023-04-15T03:13:40;5.38;;;3.53;;
69083;SDS011;56185;48.526;9.044;2023-04-15T03:16:05;5.47;;;3.33;;
69083;SDS011;56185;48.526;9.044;2023-04-15T03:18:31;7.00;;;3.50;;
69083;SDS011;56185;48.526;9.044;2023-04-15T03:20:56;7.57;;;3.50;;
69083;SDS011;56185;48.526;9.044;2023-04-15T03:23:21;5.73;;;3.43;;
69083;SDS011;56185;48.526;9.044;2023-04-15T03:25:46;6.57;;;3.30;;
69083;SDS011;56185;48.526;9.044;2023-04-15T03:28:12;7.47;;;3.33;;
69083;SDS011;56185;48.526;9.044;2023-04-15T03:30:37;6.15;;;3.47;;
69083;SDS011;56185;48.526;9.044;2023-04-15T03:33:02;6.28;;;3.50;;
69083;SDS011;56185;48.526;9.044;2023-04-15T03:35:27;8.35;;;3.22;;
69083;SDS011;56185;48.526;9.044;2023-04-15T03:37:53;8.80;;;3.30;;
69083;SDS011;56185;48.526;9.044;2023-04-15T03:40:19;6.50;;;3.78;;
69083;SDS011;56185;48.526;9.044;2023-04-15T03:42:45;5.25;;;3.58;;
69083;SDS011;56185;48.526;9.044;2023-04-15T03:45:10;6.47;;;3.45;;
69083;SDS011;56185;48.526;9.044;2023-04-15T03:47:35;6.22;;;3.78;;
69083;SDS011;56185;48.526;9.044;2023-04-15T03:50:01;6.27;;;3.47;;
69083;SDS011;56185;48.526;9.044;2023-04-15T03:52:26;5.00;;;3.15;;
69083;SDS011;56185;48.526;9.044;2023-04-15T03:54:51;7.50;;;3.80;;
69083;SDS011;56185;48.526;9.044;2023-04-15T03:57:16;6.10;;;3.30;;
69083;SDS011;56185;48.526;9.044;2023-04-15T03:59:42;6.80;;;3.67;;
69083;SDS011;56185;48.526;9.044;2023-04-15T04:02:07;8.98;;;3.63;;
69083;SDS011;56185;48.526;9.044;2023-04-15T04:04:32;5.43;;;3.50;;
69083;SDS011;56185;48.526;9.044;2023-04-15T04:06:57;6.27;;;3.30;;
69083;SDS011;56185;48.526;9.044;2023-04-15T04:09:23;6.50;;;3.40;;
69083;SDS011;56185;48.526;9.044;2023-04-15T04:11:48;8.43;;;3.78;;
69083;SDS011;56185;48.526;9.044;2023-04-15T04:14:14;5.45;;;3.47;;
69083;SDS011;56185;48.526;9.044;2023-04-15T04:16:39;4.50;;;2.97;;
69083;SDS011;56185;48.526;9.044;2023-04-15T04:19:05;6.93;;;3.42;;
69083;SDS011;56185;48.526;9.044;2023-04-15T04:21:30;6.05;;;3.28;;
69083;SDS011;56185;48.526;9.044;2023-04-15T04:23:55;6.32;;;3.42;;
69083;SDS011;56185;48.526;9.044;2023-04-15T04:26:21;4.93;;;3.40;;
69083;SDS011;56185;48.526;9.044;2023-04-15T04:28:46;5.50;;;3.40;;
69083;SDS011;56185;48.526;9.044;2023-04-15T04:31:11;7.30;;;3.07;;
69083;SDS011;56185;48.526;9.044;2023-04-15T04:33:36;7.00;;;3.60;;
69083;SDS011;56185;48.526;9.044;2023-04-15T04:36:02;5.20;;;3.47;;
69083;SDS011;56185;48.526;9.044;2023-04-15T04:38:27;6.47;;;3.50;;
69083;SDS011;56185;48.526;9.044;2023-04-15T04:40:52;6.00;;;3.38;;
69083;SDS011;56185;48.526;9.044;2023-04-15T04:43:18;9.88;;;3.42;;
69083;SDS011;56185;48.526;9.044;2023-04-15T04:45:43;7.95;;;3.63;;
69083;SDS011;56185;48.526;9.044;2023-04-15T04:48:08;6.27;;;3.03;;
69083;SDS011;56185;48.526;9.044;2023-04-15T04:50:33;6.28;;;3.17;;
69083;SDS011;56185;48.526;9.044;2023-04-15T04:52:59;4.88;;;3.42;;
69083;SDS011;56185;48.526;9.044;2023-04-15T04:55:25;6.95;;;3.28;;
69083;SDS011;56185;48.526;9.044;2023-04-15T04:57:50;6.50;;;3.60;;
69083;SDS011;56185;48.526;9.044;2023-04-15T05:00:15;4.90;;;3.47;;
69083;SDS011;56185;48.526;9.044;2023-04-15T05:02:40;6.28;;;3.47;;
69083;SDS011;56185;48.526;9.044;2023-04-15T05:05:06;8.45;;;3.20;;
69083;SDS011;56185;48.526;9.044;2023-04-15T05:07:31;6.85;;;3.65;;
69083;SDS011;56185;48.526;9.044;2023-04-15T05:09:57;5.90;;;3.65;;
69083;SDS011;56185;48.526;9.044;2023-04-15T05:12:22;6.30;;;3.50;;
69083;SDS011;56185;48.526;9.044;2023-04-15T05:14:47;5.07;;;3.55;;
69083;SDS011;56185;48.526;9.044;2023-04-15T05:17:12;6.40;;;3.57;;
69083;SDS011;56185;48.526;9.044;2023-04-15T05:19:37;8.88;;;3.72;;
69083;SDS011;56185;48.526;9.044;2023-04-15T05:22:03;4.93;;;3.10;;
69083;SDS011;56185;48.526;9.044;2023-04-15T05:24:28;5.75;;;3.58;;
69083;SDS011;56185;48.526;9.044;2023-04-15T05:26:53;5.50;;;3.15;;
69083;SDS011;56185;48.526;9.044;2023-04-15T05:29:18;6.05;;;3.50;;
69083;SDS011;56185;48.526;9.044;2023-04-15T05:31:44;7.43;;;3.88;;
69083;SDS011;56185;48.526;9.044;2023-04-15T05:34:09;6.50;;;3.40;;
69083;SDS011;56185;48.526;9.044;2023-04-15T05:36:34;7.15;;;3.70;;
69083;SDS011;56185;48.526;9.044;2023-04-15T05:38:59;4.63;;;3.00;;
69083;SDS011;56185;48.526;9.044;2023-04-15T05:41:25;8.57;;;4.07;;
69083;SDS011;56185;48.526;9.044;2023-04-15T05:43:50;8.63;;;3.37;;
69083;SDS011;56185;48.526;9.044;2023-04-15T05:46:15;7.43;;;3.28;;
69083;SDS011;56185;48.526;9.044;2023-04-15T05:48:40;5.40;;;3.50;;
69083;SDS011;56185;48.526;9.044;2023-04-15T05:51:06;5.40;;;3.30;;
69083;SDS011;56185;48.526;9.044;2023-04-15T05:53:31;6.10;;;3.40;;
69083;SDS011;56185;48.526;9.044;2023-04-15T05:55:56;7.50;;;3.75;;
69083;SDS011;56185;48.526;9.044;2023-04-15T05:58:21;6.60;;;3.50;;
69083;SDS011;56185;48.526;9.044;2023-04-15T06:00:47;5.90;;;3.75;;
69083;SDS011;56185;48.526;9.044;2023-04-15T06:03:12;4.82;;;3.50;;
69083;SDS011;56185;48.526;9.044;2023-04-15T06:05:37;8.23;;;3.83;;
69083;SDS011;56185;48.526;9.044;2023-04-15T06:08:02;6.00;;;3.47;;
69083;SDS011;56185;48.526;9.044;2023-04-15T06:10:28;5.13;;;3.28;;
69083;SDS011;56185;48.526;9.044;2023-04-15T06:12:53;8.05;;;3.72;;
69083;SDS011;56185;48.526;9.044;2023-04-15T06:15:18;6.82;;;3.70;;
69083;SDS011;56185;48.526;9.044;2023-04-15T06:17:44;6.88;;;3.42;;
69083;SDS011;56185;48.526;9.044;2023-04-15T06:20:09;6.60;;;3.25;;
69083;SDS011;56185;48.526;9.044;2023-04-15T06:22:35;7.43;;;3.50;;
69083;SDS011;56185;48.526;9.044;2023-04-15T06:25:01;6.85;;;3.65;;
69083;SDS011;56185;48.526;9.044;2023-04-15T06:27:27;5.72;;;3.45;;
69083;SDS011;56185;48.526;9.044;2023-04-15T06:29:52;5.23;;;3.20;;
69083;SDS011;56185;48.526;9.044;2023-04-15T06:32:17;6.23;;;3.30;;
69083;SDS011;56185;48.526;9.044;2023-04-15T06:34:42;8.27;;;3.83;;
69083;SDS011;56185;48.526;9.044;2023-04-15T06:37:07;6.43;;;3.60;;
69083;SDS011;56185;48.526;9.044;2023-04-15T06:39:33;5.30;;;3.60;;
69083;SDS011;56185;48.526;9.044;2023-04-15T06:41:58;11.07;;;5.68;;
69083;SDS011;56185;48.526;9.044;2023-04-15T06:44:23;8.13;;;5.05;;
69083;SDS011;56185;48.526;9.044;2023-04-15T06:46:48;10.88;;;5.60;;
69083;SDS011;56185;48.526;9.044;2023-04-15T06:49:14;6.77;;;3.90;;
69083;SDS011;56185;48.526;9.044;2023-04-15T06:51:39;6.50;;;3.80;;
69083;SDS011;56185;48.526;9.044;2023-04-15T06:54:04;7.57;;;3.40;;
69083;SDS011;56185;48.526;9.044;2023-04-15T06:56:29;5.73;;;3.50;;
69083;SDS011;56185;48.526;9.044;2023-04-15T06:58:55;5.95;;;3.63;;
69083;SDS011;56185;48.526;9.044;2023-04-15T07:01:20;7.87;;;3.87;;
69083;SDS011;56185;48.526;9.044;2023-04-15T07:03:46;6.60;;;3.40;;
69083;SDS011;56185;48.526;9.044;2023-04-15T07:06:11;9.05;;;4.25;;
69083;SDS011;56185;48.526;9.044;2023-04-15T07:08:36;6.40;;;3.70;;
69083;SDS011;56185;48.526;9.044;2023-04-15T07:11:01;8.60;;;4.00;;
69083;SDS011;56185;48.526;9.044;2023-04-15T07:13:26;6.13;;;3.50;;
69083;SDS011;56185;48.526;9.044;2023-04-15T07:15:54;8.57;;;3.50;;
69083;SDS011;56185;48.526;9.044;2023-04-15T07:18:19;6.20;;;3.60;;
69083;SDS011;56185;48.526;9.044;2023-04-15T07:20:44;7.53;;;4.07;;
69083;SDS011;56185;48.526;9.044;2023-04-15T07:23:09;9.13;;;3.60;;
69083;SDS011;56185;48.526;9.044;2023-04-15T07:25:35;5.27;;;3.47;;
69083;SDS011;56185;48.526;9.044;2023-04-15T07:28:00;5.82;;;3.25;;
69083;SDS011;56185;48.526;9.044;2023-04-15T07:30:25;7.17;;;3.30;;
69083;SDS011;56185;48.526;9.044;2023-04-15T07:32:50;7.50;;;3.63;;
69083;SDS011;56185;48.526;9.044;2023-04-15T07:35:16;7.20;;;3.40;;
69083;SDS011;56185;48.526;9.044;2023-04-15T07:37:41;8.63;;;3.38;;
69083;SDS011;56185;48.526;9.044;2023-04-15T07:40:06;6.57;;;3.30;;
69083;SDS011;56185;48.526;9.044;2023-04-15T07:42:32;8.43;;;3.20;;
69083;SDS011;56185;48.526;9.044;2023-04-15T07:44:58;8.05;;;3.50;;
69083;SDS011;56185;48.526;9.044;2023-04-15T07:47:23;5.97;;;2.88;;
69083;SDS011;56185;48.526;9.044;2023-04-15T07:49:49;6.10;;;3.30;;
69083;SDS011;56185;48.526;9.044;2023-04-15T07:52:14;5.95;;;3.28;;
69083;SDS011;56185;48.526;9.044;2023-04-15T07:54:39;5.77;;;3.10;;
69083;SDS011;56185;48.526;9.044;2023-04-15T07:57:04;5.93;;;3.23;;
69083;SDS011;56185;48.526;9.044;2023-04-15T07:59:29;5.10;;;2.85;;
69083;SDS011;56185;48.526;9.044;2023-04-15T08:01:55;6.57;;;2.92;;
69083;SDS011;56185;48.526;9.044;2023-04-15T08:04:20;5.82;;;3.05;;
69083;SDS011;56185;48.526;9.044;2023-04-15T08:06:45;6.53;;;3.43;;
69083;SDS011;56185;48.526;9.044;2023-04-15T08:09:11;7.53;;;3.45;;
69083;SDS011;56185;48.526;9.044;2023-04-15T08:11:36;6.40;;;3.50;;
69083;SDS011;56185;48.526;9.044;2023-04-15T08:14:01;10.77;;;4.30;;
69083;SDS011;56185;48.526;9.044;2023-04-15T08:16:26;10.75;;;5.30;;
69083;SDS011;56185;48.526;9.044;2023-04-15T08:18:54;12.57;;;4.72;;
69083;SDS011;56185;48.526;9.044;2023-04-15T08:21:19;13.23;;;5.53;;
69083;SDS011;56185;48.526;9.044;2023-04-15T08:23:46;9.07;;;4.95;;
69083;SDS011;56185;48.526;9.044;2023-04-15T08:26:12;10.63;;;5.03;;
69083;SDS011;56185;48.526;9.044;2023-04-15T08:28:38;8.57;;;3.80;;
69083;SDS011;56185;48.526;9.044;2023-04-15T08:31:04;6.22;;;3.15;;
69083;SDS011;56185;48.526;9.044;2023-04-15T08:33:30;5.28;;;2.95;;
69083;SDS011;56185;48.526;9.044;2023-04-15T08:35:55;7.10;;;3.33;;
69083;SDS011;56185;48.526;9.044;2023-04-15T08:38:20;6.13;;;3.20;;
69083;SDS011;56185;48.526;9.044;2023-04-15T08:40:46;7.80;;;3.17;;
69083;SDS011;56185;48.526;9.044;2023-04-15T08:43:26;6.93;;;3.33;;
69083;SDS011;56185;48.526;9.044;2023-04-15T08:45:53;5.78;;;3.08;;
69083;SDS011;56185;48.526;9.044;2023-04-15T08:48:19;4.53;;;2.80;;
69083;SDS011;56185;48.526;9.044;2023-04-15T08:50:45;4.60;;;2.88;;
69083;SDS011;56185;48.526;9.044;2023-04-15T08:53:11;6.93;;;3.22;;
69083;SDS011;56185;48.526;9.044;2023-04-15T08:55:38;4.53;;;2.75;;
69083;SDS011;56185;48.526;9.044;2023-04-15T08:58:07;5.40;;;2.70;;
69083;SDS011;56185;48.526;9.044;2023-04-15T09:00:34;6.72;;;2.78;;
69083;SDS011;56185;48.526;9.044;2023-04-15T09:02:59;5.05;;;2.83;;
69083;SDS011;56185;48.526;9.044;2023-04-15T09:05:26;6.28;;;2.70;;
69083;SDS011;56185;48.526;9.044;2023-04-15T09:07:51;5.63;;;2.70;;
69083;SDS011;56185;48.526;9.044;2023-04-15T09:10:19;6.53;;;2.60;;
69083;SDS011;56185;48.526;9.044;2023-04-15T09:12:44;7.10;;;3.00;;
69083;SDS011;56185;48.526;9.044;2023-04-15T09:15:10;5.20;;;2.55;;
69083;SDS011;56185;48.526;9.044;2023-04-15T09:17:36;5.75;;;2.85;;
69083;SDS011;56185;48.526;9.044;2023-04-15T09:20:07;3.65;;;2.30;;
69083;SDS011;56185;48.526;9.044;2023-04-15T09:22:36;6.93;;;3.13;;
69083;SDS011;56185;48.526;9.044;2023-04-15T09:25:02;5.68;;;2.90;;
69083;SDS011;56185;48.526;9.044;2023-04-15T09:27:28;5.95;;;3.38;;
69083;SDS011;56185;48.526;9.044;2023-04-15T09:29:53;9.85;;;3.65;;
69083;SDS011;56185;48.526;9.044;2023-04-15T09:32:19;6.72;;;3.28;;
69083;SDS011;56185;48.526;9.044;2023-04-15T09:34:44;4.35;;;3.03;;
69083;SDS011;56185;48.526;9.044;2023-04-15T09:37:09;5.07;;;3.07;;
69083;SDS011;56185;48.526;9.044;2023-04-15T09:39:48;7.23;;;3.30;;
69083;SDS011;56185;48.526;9.044;2023-04-15T09:42:14;6.85;;;3.38;;
69083;SDS011;56185;48.526;9.044;2023-04-15T09:44:40;6.22;;;2.92;;
69083;SDS011;56185;48.526;9.044;2023-04-15T09:47:05;6.45;;;2.83;;
69083;SDS011;56185;48.526;9.044;2023-04-15T09:49:30;7.90;;;2.93;;
69083;SDS011;56185;48.526;9.044;2023-04-15T09:51:59;6.10;;;3.10;;
69083;SDS011;56185;48.526;9.044;2023-04-15T09:54:31;6.43;;;3.03;;
69083;SDS011;56185;48.526;9.044;2023-04-15T09:57:03;5.75;;;3.15;;
69083;SDS011;56185;48.526;9.044;2023-04-15T09:59:29;5.57;;;3.00;;
69083;SDS011;56185;48.526;9.044;2023-04-15T10:01:54;5.83;;;2.97;;
69083;SDS011;56185;48.526;9.044;2023-04-15T10:04:20;6.25;;;2.90;;
69083;SDS011;56185;48.526;9.044;2023-04-15T10:06:46;5.85;;;2.85;;
69083;SDS011;56185;48.526;9.044;2023-04-15T10:09:11;6.03;;;2.40;;
69083;SDS011;56185;48.526;9.044;2023-04-15T10:11:37;4.88;;;2.70;;
69083;SDS011;56185;48.526;9.044;2023-04-15T10:14:02;7.85;;;3.13;;
69083;SDS011;56185;48.526;9.044;2023-04-15T10:16:28;5.18;;;3.03;;
69083;SDS011;56185;48.526;9.044;2023-04-15T10:18:56;7.10;;;2.90;;
69083;SDS011;56185;48.526;9.044;2023-04-15T10:21:25;4.85;;;2.42;;
69083;SDS011;56185;48.526;9.044;2023-04-15T10:23:52;7.13;;;3.00;;
69083;SDS011;56185;48.526;9.044;2023-04-15T10:26:17;6.57;;;2.80;;
69083;SDS011;56185;48.526;9.044;2023-04-15T10:28:43;5.30;;;3.10;;
69083;SDS011;56185;48.526;9.044;2023-04-15T10:31:11;6.90;;;2.75;;
69083;SDS011;56185;48.526;9.044;2023-04-15T10:33:37;4.63;;;2.58;;
69083;SDS011;56185;48.526;9.044;2023-04-15T10:36:03;6.30;;;2.35;;
69083;SDS011;56185;48.526;9.044;2023-04-15T10:41:18;5.65;;;2.00;;
69083;SDS011;56185;48.526;9.044;2023-04-15T10:43:51;5.03;;;2.30;;
69083;SDS011;56185;48.526;9.044;2023-04-15T10:46:19;5.25;;;2.15;;
69083;SDS011;56185;48.526;9.044;2023-04-15T10:48:55;4.50;;;2.13;;
69083;SDS011;56185;48.526;9.044;2023-04-15T10:51:29;4.55;;;2.30;;
69083;SDS011;56185;48.526;9.044;2023-04-15T10:53:56;5.57;;;2.10;;
69083;SDS011;56185;48.526;9.044;2023-04-15T10:56:22;4.30;;;2.40;;
69083;SDS011;56185;48.526;9.044;2023-04-15T10:58:47;5.78;;;2.50;;
69083;SDS011;56185;48.526;9.044;2023-04-15T11:01:13;9.27;;;3.90;;
69083;SDS011;56185;48.526;9.044;2023-04-15T11:03:39;7.03;;;2.97;;
69083;SDS011;56185;48.526;9.044;2023-04-15T11:06:06;7.82;;;2.40;;
69083;SDS011;56185;48.526;9.044;2023-04-15T11:08:51;3.67;;;2.30;;
69083;SDS011;56185;48.526;9.044;2023-04-15T11:11:18;9.70;;;3.13;;
69083;SDS011;56185;48.526;9.044;2023-04-15T11:13:50;6.07;;;2.60;;
69083;SDS011;56185;48.526;9.044;2023-04-15T11:16:15;7.32;;;2.05;;
69083;SDS011;56185;48.526;9.044;2023-04-15T11:18:41;6.28;;;2.30;;
69083;SDS011;56185;48.526;9.044;2023-04-15T11:21:07;4.13;;;2.30;;
69083;SDS011;56185;48.526;9.044;2023-04-15T11:26:03;4.82;;;2.28;;
69083;SDS011;56185;48.526;9.044;2023-04-15T11:28:30;7.60;;;2.55;;
69083;SDS011;56185;48.526;9.044;2023-04-15T11:30:56;5.13;;;2.28;;
69083;SDS011;56185;48.526;9.044;2023-04-15T11:33:22;4.85;;;2.05;;
69083;SDS011;56185;48.526;9.044;2023-04-15T11:35:49;3.92;;;1.80;;
69083;SDS011;56185;48.526;9.044;2023-04-15T11:38:15;3.75;;;1.60;;
69083;SDS011;56185;48.526;9.044;2023-04-15T11:40:40;3.25;;;1.48;;
69083;SDS011;56185;48.526;9.044;2023-04-15T11:43:16;2.58;;;1.35;;
69083;SDS011;56185;48.526;9.044;2023-04-15T11:45:47;2.45;;;1.20;;
69083;SDS011;56185;48.526;9.044;2023-04-15T11:48:12;2.83;;;1.40;;
69083;SDS011;56185;48.526;9.044;2023-04-15T11:50:38;3.13;;;1.70;;
69083;SDS011;56185;48.526;9.044;2023-04-15T11:53:04;3.28;;;1.65;;
69083;SDS011;56185;48.526;9.044;2023-04-15T11:55:40;3.50;;;1.50;;
69083;SDS011;56185;48.526;9.044;2023-04-15T11:58:12;2.80;;;1.50;;
69083;SDS011;56185;48.526;9.044;2023-04-15T12:00:40;3.67;;;1.50;;
69083;SDS011;56185;48.526;9.044;2023-04-15T12:03:13;3.85;;;1.80;;
69083;SDS011;56185;48.526;9.044;2023-04-15T12:08:57;4.05;;;1.73;;
69083;SDS011;56185;48.526;9.044;2023-04-15T12:13:58;3.80;;;1.58;;
69083;SDS011;56185;48.526;9.044;2023-04-15T12:16:28;2.95;;;1.40;;
69083;SDS011;56185;48.526;9.044;2023-04-15T12:18:55;5.43;;;1.55;;
69083;SDS011;56185;48.526;9.044;2023-04-15T12:21:22;3.58;;;1.58;;
69083;SDS011;56185;48.526;9.044;2023-04-15T12:23:50;3.35;;;1.75;;
69083;SDS011;56185;48.526;9.044;2023-04-15T12:26:33;3.15;;;1.65;;
69083;SDS011;56185;48.526;9.044;2023-04-15T12:29:09;4.72;;;1.70;;
69083;SDS011;56185;48.526;9.044;2023-04-15T12:31:36;4.10;;;1.60;;
69083;SDS011;56185;48.526;9.044;2023-04-15T12:34:02;2.90;;;1.67;;
69083;SDS011;56185;48.526;9.044;2023-04-15T12:36:31;4.10;;;1.90;;
69083;SDS011;56185;48.526;9.044;2023-04-15T12:38:56;3.83;;;2.20;;
69083;SDS011;56185;48.526;9.044;2023-04-15T12:41:21;5.47;;;2.33;;
69083;SDS011;56185;48.526;9.044;2023-04-15T12:43:47;4.28;;;2.38;;
69083;SDS011;56185;48.526;9.044;2023-04-15T12:46:12;4.90;;;2.00;;
69083;SDS011;56185;48.526;9.044;2023-04-15T12:48:38;7.03;;;1.95;;
69083;SDS011;56185;48.526;9.044;2023-04-15T12:51:04;7.55;;;2.35;;
69083;SDS011;56185;48.526;9.044;2023-04-15T12:53:29;3.08;;;1.70;;
69083;SDS011;56185;48.526;9.044;2023-04-15T12:55:54;3.47;;;1.90;;
69083;SDS011;56185;48.526;9.044;2023-04-15T12:58:20;2.97;;;1.80;;
69083;SDS011;56185;48.526;9.044;2023-04-15T13:00:45;6.45;;;1.90;;
69083;SDS011;56185;48.526;9.044;2023-04-15T13:03:11;6.53;;;1.90;;
69083;SDS011;56185;48.526;9.044;2023-04-15T13:05:36;5.10;;;1.90;;
69083;SDS011;56185;48.526;9.044;2023-04-15T13:08:08;4.47;;;1.90;;
69083;SDS011;56185;48.526;9.044;2023-04-15T13:10:38;6.43;;;2.10;;
69083;SDS011;56185;48.526;9.044;2023-04-15T13:13:04;5.50;;;2.08;;
69083;SDS011;56185;48.526;9.044;2023-04-15T13:15:30;5.35;;;2.20;;
69083;SDS011;56185;48.526;9.044;2023-04-15T13:17:55;7.85;;;2.60;;
69083;SDS011;56185;48.526;9.044;2023-04-15T13:20:20;4.70;;;2.15;;
69083;SDS011;56185;48.526;9.044;2023-04-15T13:22:46;4.45;;;2.20;;
69083;SDS011;56185;48.526;9.044;2023-04-15T13:25:12;7.20;;;2.40;;
69083;SDS011;56185;48.526;9.044;2023-04-15T13:27:38;6.00;;;2.70;;
69083;SDS011;56185;48.526;9.044;2023-04-15T13:30:04;3.08;;;2.33;;
69083;SDS011;56185;48.526;9.044;2023-04-15T13:32:30;5.03;;;2.53;;
69083;SDS011;56185;48.526;9.044;2023-04-15T13:34:55;6.95;;;2.33;;
69083;SDS011;56185;48.526;9.044;2023-04-15T13:37:24;3.67;;;2.00;;
69083;SDS011;56185;48.526;9.044;2023-04-15T13:39:50;3.50;;;1.80;;
69083;SDS011;56185;48.526;9.044;2023-04-15T13:42:16;4.53;;;1.80;;
69083;SDS011;56185;48.526;9.044;2023-04-15T13:44:41;2.33;;;1.80;;
69083;SDS011;56185;48.526;9.044;2023-04-15T13:47:06;6.10;;;2.20;;
69083;SDS011;56185;48.526;9.044;2023-04-15T13:49:31;5.35;;;2.22;;
69083;SDS011;56185;48.526;9.044;2023-04-15T13:51:57;4.17;;;2.30;;
69083;SDS011;56185;48.526;9.044;2023-04-15T13:54:22;3.53;;;2.10;;
69083;SDS011;56185;48.526;9.044;2023-04-15T13:56:47;5.67;;;2.40;;
69083;SDS011;56185;48.526;9.044;2023-04-15T13:59:12;4.72;;;2.40;;
69083;SDS011;56185;48.526;9.044;2023-04-15T14:01:38;4.70;;;2.20;;
69083;SDS011;56185;48.526;9.044;2023-04-15T14:04:03;2.70;;;2.13;;
69083;SDS011;56185;48.526;9.044;2023-04-15T14:06:28;4.15;;;2.67;;
69083;SDS011;56185;48.526;9.044;2023-04-15T14:08:54;4.35;;;2.30;;
69083;SDS011;56185;48.526;9.044;2023-04-15T14:11:19;4.63;;;2.63;;
69083;SDS011;56185;48.526;9.044;2023-04-15T14:13:44;4.93;;;2.58;;
69083;SDS011;56185;48.526;9.044;2023-04-15T14:16:10;4.17;;;2.57;;
69083;SDS011;56185;48.526;9.044;2023-04-15T14:18:35;4.18;;;2.65;;
69083;SDS011;56185;48.526;9.044;2023-04-15T14:21:00;4.30;;;2.63;;
69083;SDS011;56185;48.526;9.044;2023-04-15T14:23:25;7.77;;;2.93;;
69083;SDS011;56185;48.526;9.044;2023-04-15T14:25:51;4.43;;;2.40;;
69083;SDS011;56185;48.526;9.044;2023-04-15T14:28:17;6.55;;;2.53;;
69083;SDS011;56185;48.526;9.044;2023-04-15T14:30:42;4.50;;;2.38;;
69083;SDS011;56185;48.526;9.044;2023-04-15T14:33:07;2.57;;;2.03;;
69083;SDS011;56185;48.526;9.044;2023-04-15T14:35:33;3.40;;;2.00;;
69083;SDS011;56185;48.526;9.044;2023-04-15T14:37:58;2.93;;;2.00;;
69083;SDS011;56185;48.526;9.044;2023-04-15T14:40:23;3.43;;;1.90;;
69083;SDS011;56185;48.526;9.044;2023-04-15T14:42:48;3.92;;;2.10;;
69083;SDS011;56185;48.526;9.044;2023-04-15T14:45:14;3.30;;;2.07;;
69083;SDS011;56185;48.526;9.044;2023-04-15T14:47:39;4.43;;;2.00;;
69083;SDS011;56185;48.526;9.044;2023-04-15T14:50:04;3.88;;;2.10;;
69083;SDS011;56185;48.526;9.044;2023-04-15T14:52:30;3.47;;;1.98;;